createdAt,value
2019-03-06T00:01:24.806Z,6.20
2019-03-06T00:03:55.219Z,6.77
2019-03-06T00:06:25.998Z,6.43
2019-03-06T00:08:56.347Z,7.97
2019-03-06T00:11:26.646Z,6.07
2019-03-06T00:13:57.213Z,5.47
2019-03-06T00:16:27.762Z,5.20
2019-03-06T00:18:58.214Z,4.97
2019-03-06T00:21:29.224Z,4.53
2019-03-06T00:23:59.550Z,6.80
2019-03-06T00:26:30.248Z,4.97
2019-03-06T00:29:00.646Z,4.57
2019-03-06T00:31:30.935Z,5.73
2019-03-06T00:34:01.624Z,3.40
2019-03-06T00:36:33.010Z,3.07
2019-03-06T00:39:03.910Z,4.67
2019-03-06T00:41:40.690Z,3.17
2019-03-06T00:44:11.103Z,4.37
2019-03-06T00:46:41.422Z,4.00
2019-03-06T00:49:12.071Z,2.30
2019-03-06T00:51:42.750Z,3.50
2019-03-06T00:54:13.268Z,3.77
2019-03-06T00:56:43.622Z,5.30
2019-03-06T00:59:13.933Z,5.00
2019-03-06T01:01:44.410Z,4.90
2019-03-06T01:04:15.086Z,6.10
2019-03-06T01:06:45.389Z,5.27
2019-03-06T01:09:16.656Z,7.90
2019-03-06T01:11:47.132Z,5.20
2019-03-06T01:14:17.436Z,7.83
2019-03-06T01:16:47.808Z,5.90
2019-03-06T01:19:18.428Z,8.37
2019-03-06T01:21:48.730Z,5.70
2019-03-06T01:24:19.081Z,7.40
2019-03-06T01:26:49.550Z,8.07
2019-03-06T01:29:20.316Z,11.27
2019-03-06T01:31:51.997Z,11.00
2019-03-06T01:34:44.348Z,11.53
2019-03-06T01:37:22.917Z,11.23
2019-03-06T01:40:11.104Z,10.87
2019-03-06T01:42:58.640Z,12.33
2019-03-06T01:45:28.944Z,11.93
2019-03-06T01:47:59.456Z,12.37
2019-03-06T01:50:30.176Z,12.23
2019-03-06T01:53:00.529Z,11.33
2019-03-06T01:55:31.497Z,8.40
2019-03-06T01:58:02.009Z,9.40
2019-03-06T02:00:32.579Z,11.37
2019-03-06T02:03:02.946Z,9.97
2019-03-06T02:05:33.232Z,8.37
2019-03-06T02:08:03.898Z,10.47
2019-03-06T02:10:34.432Z,10.63
2019-03-06T02:13:06.871Z,8.20
2019-03-06T02:15:37.725Z,10.10
2019-03-06T02:18:08.291Z,10.63
2019-03-06T02:20:38.632Z,8.73
2019-03-06T02:23:09.334Z,9.67
2019-03-06T02:25:40.046Z,10.20
2019-03-06T02:28:10.329Z,8.60
2019-03-06T02:30:41.168Z,11.43
2019-03-06T02:33:12.015Z,12.50
2019-03-06T02:35:42.514Z,9.43
2019-03-06T02:38:12.864Z,7.87
2019-03-06T02:40:43.535Z,11.13
2019-03-06T02:43:13.923Z,10.10
2019-03-06T02:45:44.251Z,10.27
2019-03-06T02:48:15.043Z,7.67
2019-03-06T02:50:45.331Z,9.37
2019-03-06T02:53:15.651Z,8.97
2019-03-06T02:55:46.254Z,10.30
2019-03-06T02:58:31.439Z,10.30
2019-03-06T03:01:23.457Z,9.47
2019-03-06T03:04:07.685Z,12.43
2019-03-06T03:06:44.753Z,15.93
2019-03-06T03:09:17.726Z,13.07
2019-03-06T03:11:48.147Z,13.87
2019-03-06T03:14:18.440Z,19.80
2019-03-06T03:16:49.226Z,30.40
2019-03-06T03:19:19.755Z,16.97
2019-03-06T03:21:50.137Z,18.10
2019-03-06T03:24:21.071Z,16.00
2019-03-06T03:26:51.752Z,16.40
2019-03-06T03:29:22.218Z,14.50
2019-03-06T03:31:53.007Z,16.10
2019-03-06T03:34:23.750Z,12.77
2019-03-06T03:36:54.167Z,13.13
2019-03-06T03:39:25.565Z,19.77
2019-03-06T03:41:55.895Z,12.93
2019-03-06T03:44:26.584Z,14.67
2019-03-06T03:46:57.221Z,14.37
2019-03-06T03:49:27.982Z,12.40
2019-03-06T03:51:58.888Z,15.00
2019-03-06T03:54:29.588Z,16.27
2019-03-06T03:56:59.909Z,15.83
2019-03-06T03:59:30.652Z,16.37
2019-03-06T04:02:01.313Z,16.87
2019-03-06T04:04:31.946Z,17.23
2019-03-06T04:07:02.279Z,13.60
2019-03-06T04:09:32.944Z,17.07
2019-03-06T04:12:03.575Z,16.63
2019-03-06T04:14:34.228Z,16.93
2019-03-06T04:17:04.555Z,16.77
2019-03-06T04:19:35.089Z,15.63
2019-03-06T04:22:05.934Z,29.00
2019-03-06T04:24:36.361Z,19.60
2019-03-06T04:27:06.721Z,19.50
2019-03-06T04:29:37.207Z,16.07
2019-03-06T04:32:07.561Z,17.43
2019-03-06T04:34:38.233Z,17.17
2019-03-06T04:37:08.613Z,13.67
2019-03-06T04:39:38.923Z,15.83
2019-03-06T04:42:09.341Z,20.47
2019-03-06T04:44:39.623Z,18.53
2019-03-06T04:47:09.957Z,18.53
2019-03-06T04:49:40.651Z,25.20
2019-03-06T04:52:11.001Z,22.73
2019-03-06T04:54:41.286Z,18.03
2019-03-06T04:57:11.871Z,18.00
2019-03-06T04:59:42.395Z,18.83
2019-03-06T05:02:12.793Z,20.13
2019-03-06T05:04:43.495Z,23.83
2019-03-06T05:07:13.911Z,21.13
2019-03-06T05:09:44.281Z,24.03
2019-03-06T05:12:14.658Z,20.83
2019-03-06T05:14:45.152Z,20.93
2019-03-06T05:17:35.838Z,21.27
2019-03-06T05:20:06.546Z,23.87
2019-03-06T05:22:37.005Z,21.17
2019-03-06T05:25:07.712Z,19.43
2019-03-06T05:27:38.345Z,22.40
2019-03-06T05:30:09.373Z,28.20
2019-03-06T05:32:40.047Z,21.60
2019-03-06T05:35:50.006Z,18.77
2019-03-06T05:38:24.815Z,20.40
2019-03-06T05:40:55.175Z,20.77
2019-03-06T05:43:25.897Z,21.67
2019-03-06T05:45:56.197Z,20.37
2019-03-06T05:48:26.846Z,18.47
2019-03-06T05:50:57.207Z,20.47
2019-03-06T05:53:27.928Z,21.80
2019-03-06T05:56:00.111Z,22.90
2019-03-06T05:58:30.448Z,20.57
2019-03-06T06:01:00.893Z,23.90
2019-03-06T06:03:31.583Z,19.63
2019-03-06T06:06:01.959Z,30.07
2019-03-06T06:08:32.319Z,32.97
2019-03-06T06:11:02.834Z,30.07
2019-03-06T06:13:33.148Z,28.67
2019-03-06T06:16:03.439Z,30.63
2019-03-06T06:18:34.159Z,29.07
2019-03-06T06:21:35.655Z,25.13
2019-03-06T06:24:18.414Z,18.97
2019-03-06T06:26:48.730Z,22.40
2019-03-06T06:29:19.233Z,66.83
2019-03-06T06:31:49.758Z,29.37
2019-03-06T06:34:20.260Z,24.43
2019-03-06T06:36:50.619Z,30.93
2019-03-06T06:39:21.288Z,26.97
2019-03-06T06:41:51.843Z,16.13
2019-03-06T06:44:22.164Z,18.40
2019-03-06T06:46:52.944Z,37.17
2019-03-06T06:49:23.553Z,20.33
2019-03-06T06:52:37.977Z,18.73
2019-03-06T06:55:28.588Z,25.27
2019-03-06T06:58:44.771Z,24.30
2019-03-06T07:01:51.331Z,20.97
2019-03-06T07:05:18.965Z,21.23
2019-03-06T07:08:00.742Z,23.27
2019-03-06T07:10:59.204Z,21.07
2019-03-06T07:13:52.024Z,22.60
2019-03-06T07:16:34.562Z,17.47
2019-03-06T07:19:32.931Z,19.00
2019-03-06T07:22:22.220Z,18.23
2019-03-06T07:25:07.392Z,21.67
2019-03-06T07:28:08.947Z,20.60
2019-03-06T07:30:52.083Z,25.87
2019-03-06T07:33:46.924Z,42.10
2019-03-06T07:36:34.272Z,54.80
2019-03-06T07:39:17.961Z,64.17
2019-03-06T07:41:55.586Z,41.90
2019-03-06T07:44:44.879Z,36.13
2019-03-06T07:47:39.901Z,34.70
2019-03-06T07:50:37.810Z,26.20
2019-03-06T07:54:08.374Z,29.87
2019-03-06T07:57:07.655Z,22.13
2019-03-06T07:59:38.201Z,23.70
2019-03-06T08:02:11.577Z,26.53
2019-03-06T08:04:50.832Z,24.63
2019-03-06T08:07:21.249Z,22.40
2019-03-06T08:09:52.264Z,19.43
2019-03-06T08:12:39.718Z,24.80
2019-03-06T08:15:40.047Z,26.63
2019-03-06T08:18:29.658Z,23.60
2019-03-06T08:21:17.363Z,28.77
2019-03-06T08:24:05.267Z,21.90
2019-03-06T08:26:35.709Z,26.43
2019-03-06T08:29:06.300Z,22.10
2019-03-06T08:31:55.556Z,23.03
2019-03-06T08:34:26.063Z,19.30
2019-03-06T08:36:56.650Z,27.67
2019-03-06T08:39:26.939Z,29.40
2019-03-06T08:41:57.684Z,21.53
2019-03-06T08:44:28.014Z,22.17
2019-03-06T08:47:16.951Z,21.67
2019-03-06T08:50:15.536Z,23.87
2019-03-06T08:53:10.691Z,26.87
2019-03-06T08:56:00.089Z,18.83
2019-03-06T08:58:47.897Z,24.27
2019-03-06T09:01:38.598Z,19.63
2019-03-06T09:04:23.478Z,24.47
2019-03-06T09:07:31.440Z,35.50
2019-03-06T09:10:19.513Z,39.93
2019-03-06T09:13:04.983Z,39.63
2019-03-06T09:15:57.898Z,39.10
2019-03-06T09:18:47.555Z,33.03
2019-03-06T09:21:43.142Z,30.80
2019-03-06T09:24:42.086Z,25.30
2019-03-06T09:27:30.136Z,27.43
2019-03-06T09:30:19.728Z,19.60
2019-03-06T09:33:11.752Z,22.63
2019-03-06T09:35:55.161Z,24.07
2019-03-06T09:38:43.586Z,25.67
2019-03-06T09:41:35.292Z,24.00
2019-03-06T09:44:13.981Z,26.87
2019-03-06T09:47:09.462Z,22.13
2019-03-06T09:50:13.987Z,24.67
2019-03-06T09:53:02.028Z,22.13
2019-03-06T09:55:49.704Z,13.77
2019-03-06T09:58:39.017Z,13.03
2019-03-06T10:01:37.904Z,6.77
2019-03-06T10:04:24.303Z,13.33
2019-03-06T10:07:22.515Z,8.30
2019-03-06T10:10:15.056Z,10.47
2019-03-06T10:12:51.300Z,6.13
2019-03-06T10:15:40.580Z,10.37
2019-03-06T10:18:19.728Z,7.93
2019-03-06T10:20:50.285Z,8.10
2019-03-06T10:23:20.602Z,8.23
2019-03-06T10:25:51.107Z,10.30
2019-03-06T10:28:27.918Z,8.73
2019-03-06T10:31:02.207Z,6.33
2019-03-06T10:33:26.324Z,8.30
2019-03-06T10:35:56.624Z,7.67
2019-03-06T10:38:27.305Z,11.83
2019-03-06T10:40:59.063Z,6.67
2019-03-06T10:43:29.393Z,7.60
2019-03-06T10:46:00.042Z,8.50
2019-03-06T10:48:31.048Z,7.03
2019-03-06T10:51:01.476Z,4.57
2019-03-06T10:53:40.917Z,8.80
2019-03-06T10:56:04.651Z,8.23
2019-03-06T10:58:35.200Z,6.00
2019-03-06T11:01:06.397Z,8.23
2019-03-06T11:03:52.302Z,6.27
2019-03-06T11:06:22.785Z,5.20
2019-03-06T11:08:54.717Z,10.60
2019-03-06T11:11:25.010Z,6.80
2019-03-06T11:13:55.353Z,9.37
2019-03-06T11:16:25.741Z,7.87
2019-03-06T11:18:56.506Z,11.10
2019-03-06T11:21:27.053Z,7.03
2019-03-06T11:23:57.939Z,7.13
2019-03-06T11:26:28.777Z,7.23
2019-03-06T11:28:59.377Z,3.97
2019-03-06T11:31:30.205Z,3.33
2019-03-06T11:34:01.064Z,4.07
2019-03-06T11:36:31.354Z,8.33
2019-03-06T11:39:02.091Z,9.93
2019-03-06T11:41:34.371Z,10.40
2019-03-06T11:44:04.932Z,4.70
2019-03-06T11:46:35.412Z,2.90
2019-03-06T11:49:06.700Z,8.67
2019-03-06T11:51:37.010Z,3.80
2019-03-06T11:54:07.755Z,3.00
2019-03-06T11:56:38.671Z,6.57
2019-03-06T11:59:09.122Z,7.00
2019-03-06T12:01:48.069Z,4.90
2019-03-06T12:04:13.498Z,5.43
2019-03-06T12:06:43.965Z,5.80
2019-03-06T12:09:34.058Z,3.33
2019-03-06T12:12:05.939Z,5.30
2019-03-06T12:14:36.414Z,7.30
2019-03-06T12:17:07.179Z,5.40
2019-03-06T12:19:37.685Z,6.57
2019-03-06T12:22:07.967Z,7.57
2019-03-06T12:24:39.455Z,9.33
2019-03-06T12:27:09.952Z,3.53
2019-03-06T12:29:40.274Z,5.40
2019-03-06T12:32:11.194Z,3.67
2019-03-06T12:34:41.814Z,5.80
2019-03-06T12:37:12.337Z,9.93
2019-03-06T12:39:42.667Z,5.33
2019-03-06T12:42:15.143Z,4.37
2019-03-06T12:44:45.408Z,4.60
2019-03-06T12:47:15.980Z,4.47
2019-03-06T12:49:46.403Z,6.63
2019-03-06T12:52:17.265Z,3.97
2019-03-06T12:54:47.815Z,3.00
2019-03-06T12:57:18.099Z,4.53
2019-03-06T12:59:48.919Z,3.30
2019-03-06T13:02:19.604Z,7.00
2019-03-06T13:04:49.934Z,5.67
2019-03-06T13:07:20.441Z,6.27
2019-03-06T13:09:51.045Z,7.43
2019-03-06T13:12:21.615Z,9.77
2019-03-06T13:14:52.336Z,5.93
2019-03-06T13:17:22.906Z,5.30
2019-03-06T13:19:53.671Z,4.23
2019-03-06T13:22:24.137Z,8.07
2019-03-06T13:24:54.441Z,7.43
2019-03-06T13:27:25.713Z,3.60
2019-03-06T13:29:56.123Z,5.23
2019-03-06T13:32:33.068Z,4.90
2019-03-06T13:35:05.826Z,5.73
2019-03-06T13:37:36.544Z,8.80
2019-03-06T13:40:07.115Z,11.00
2019-03-06T13:42:37.878Z,5.63
2019-03-06T13:45:08.948Z,5.37
2019-03-06T13:47:39.890Z,6.10
2019-03-06T13:50:11.668Z,3.10
2019-03-06T13:52:42.135Z,5.07
2019-03-06T13:55:12.994Z,3.63
2019-03-06T13:57:44.442Z,6.43
2019-03-06T14:00:17.214Z,2.57
2019-03-06T14:02:48.429Z,2.90
2019-03-06T14:05:20.534Z,3.73
2019-03-06T14:07:56.279Z,3.33
2019-03-06T14:10:23.795Z,5.43
2019-03-06T14:12:55.004Z,4.50
2019-03-06T14:15:25.672Z,4.10
2019-03-06T14:17:56.237Z,3.73
2019-03-06T14:20:26.559Z,8.73
2019-03-06T14:22:57.209Z,2.87
2019-03-06T14:25:27.982Z,5.63
2019-03-06T14:27:58.404Z,2.37
2019-03-06T14:30:28.830Z,2.67
2019-03-06T14:32:59.501Z,3.50
2019-03-06T14:35:30.477Z,5.77
2019-03-06T14:38:01.012Z,6.57
2019-03-06T14:40:33.285Z,5.97
2019-03-06T14:43:05.262Z,5.63
2019-03-06T14:45:35.793Z,3.47
2019-03-06T14:48:06.828Z,3.00
2019-03-06T14:50:37.153Z,3.57
2019-03-06T14:53:08.034Z,5.27
2019-03-06T14:55:38.603Z,4.33
2019-03-06T14:58:09.021Z,4.43
2019-03-06T15:00:39.727Z,2.20
2019-03-06T15:03:10.457Z,5.57
2019-03-06T15:05:47.163Z,7.73
2019-03-06T15:08:13.235Z,8.43
2019-03-06T15:10:44.023Z,7.63
2019-03-06T15:13:15.900Z,4.67
2019-03-06T15:15:46.619Z,5.63
2019-03-06T15:18:17.422Z,4.67
2019-03-06T15:20:48.091Z,4.13
2019-03-06T15:23:18.751Z,6.73
2019-03-06T15:25:49.153Z,12.07
2019-03-06T15:28:19.583Z,6.43
2019-03-06T15:30:50.671Z,4.33
2019-03-06T15:33:22.108Z,8.47
2019-03-06T15:35:52.718Z,7.73
2019-03-06T15:38:24.306Z,7.93
2019-03-06T15:40:54.630Z,4.73
2019-03-06T15:43:25.230Z,11.43
2019-03-06T15:45:56.072Z,4.83
2019-03-06T15:48:26.550Z,5.63
2019-03-06T15:50:56.877Z,10.23
2019-03-06T15:53:27.568Z,5.37
2019-03-06T15:55:58.206Z,8.03
2019-03-06T15:58:28.484Z,8.17
2019-03-06T16:00:59.351Z,8.70
2019-03-06T16:03:30.293Z,5.73
2019-03-06T16:06:00.735Z,8.00
2019-03-06T16:08:31.901Z,8.50
2019-03-06T16:11:02.554Z,16.37
2019-03-06T16:13:32.998Z,7.90
2019-03-06T16:16:04.493Z,14.50
2019-03-06T16:18:35.333Z,10.97
2019-03-06T16:21:06.190Z,10.17
2019-03-06T16:23:36.691Z,14.57
2019-03-06T16:26:07.018Z,24.83
2019-03-06T16:28:37.403Z,23.13
2019-03-06T16:31:08.244Z,27.80
2019-03-06T16:33:38.885Z,30.80
2019-03-06T16:36:09.398Z,46.97
2019-03-06T16:38:40.083Z,35.17
2019-03-06T16:41:10.647Z,32.20
2019-03-06T16:43:41.034Z,21.93
2019-03-06T16:46:11.966Z,25.10
2019-03-06T16:48:42.262Z,30.00
2019-03-06T16:51:12.803Z,35.60
2019-03-06T16:53:43.173Z,29.90
2019-03-06T16:56:13.854Z,38.77
2019-03-06T16:58:44.356Z,27.90
2019-03-06T17:01:15.018Z,30.33
2019-03-06T17:03:45.532Z,25.33
2019-03-06T17:06:16.668Z,27.57
2019-03-06T17:08:47.028Z,26.33
2019-03-06T17:11:17.675Z,34.77
2019-03-06T17:13:48.630Z,38.97
2019-03-06T17:16:19.482Z,21.73
2019-03-06T17:18:50.142Z,34.43
2019-03-06T17:21:20.890Z,42.57
2019-03-06T17:23:51.670Z,44.93
2019-03-06T17:26:22.052Z,41.53
2019-03-06T17:28:52.529Z,40.63
2019-03-06T17:31:23.329Z,41.87
2019-03-06T17:33:54.107Z,49.03
2019-03-06T17:36:24.676Z,43.97
2019-03-06T17:38:55.128Z,48.63
2019-03-06T17:41:25.829Z,47.67
2019-03-06T17:43:56.201Z,29.17
2019-03-06T17:46:26.686Z,36.43
2019-03-06T17:48:57.484Z,29.70
2019-03-06T17:51:28.324Z,32.57
2019-03-06T17:53:58.710Z,36.83
2019-03-06T17:56:29.401Z,32.47
2019-03-06T17:59:00.015Z,27.53
2019-03-06T18:01:30.505Z,36.47
2019-03-06T18:04:14.734Z,27.77
2019-03-06T18:06:45.514Z,29.40
2019-03-06T18:09:15.911Z,38.23
2019-03-06T18:11:46.464Z,35.83
2019-03-06T18:14:17.280Z,36.80
2019-03-06T18:16:48.177Z,46.27
2019-03-06T18:19:18.591Z,32.40
2019-03-06T18:21:49.389Z,38.33
2019-03-06T18:24:19.948Z,46.67
2019-03-06T18:26:50.287Z,45.77
2019-03-06T18:29:21.130Z,31.63
2019-03-06T18:31:51.506Z,37.87
2019-03-06T18:34:22.282Z,50.40
2019-03-06T18:36:52.735Z,38.27
2019-03-06T18:39:23.039Z,46.43
2019-03-06T18:41:56.385Z,48.90
2019-03-06T18:44:31.954Z,47.80
2019-03-06T18:47:02.896Z,39.67
2019-03-06T18:49:38.637Z,33.33
2019-03-06T18:52:12.109Z,50.50
2019-03-06T18:54:42.898Z,25.37
2019-03-06T18:57:13.495Z,20.70
2019-03-06T18:59:43.854Z,24.50
2019-03-06T19:02:14.203Z,24.80
2019-03-06T19:04:44.803Z,33.77
2019-03-06T19:07:15.215Z,28.37
2019-03-06T19:09:47.992Z,27.00
2019-03-06T19:12:19.801Z,28.30
2019-03-06T19:14:52.754Z,26.77
2019-03-06T19:17:23.377Z,32.57
2019-03-06T19:19:55.285Z,28.17
2019-03-06T19:22:27.281Z,21.97
2019-03-06T19:24:58.156Z,21.97
2019-03-06T19:27:28.947Z,24.20
2019-03-06T19:29:59.354Z,30.80
2019-03-06T19:32:29.780Z,30.60
2019-03-06T19:35:00.616Z,24.47
2019-03-06T19:37:31.282Z,33.53
2019-03-06T19:40:02.136Z,37.07
2019-03-06T19:42:34.118Z,28.23
2019-03-06T19:45:06.855Z,28.57
2019-03-06T19:47:38.402Z,30.63
2019-03-06T19:50:14.602Z,29.97
2019-03-06T19:52:45.234Z,26.70
2019-03-06T19:55:17.132Z,27.33
2019-03-06T19:57:58.962Z,25.70
2019-03-06T20:00:29.949Z,25.43
2019-03-06T20:03:00.864Z,28.67
2019-03-06T20:05:34.688Z,23.67
2019-03-06T20:08:08.362Z,29.13
2019-03-06T20:10:39.613Z,24.67
2019-03-06T20:13:10.794Z,25.40
2019-03-06T20:15:41.118Z,25.70
2019-03-06T20:18:12.188Z,27.30
2019-03-06T20:20:42.869Z,22.40
2019-03-06T20:23:13.144Z,20.20
2019-03-06T20:25:43.562Z,20.03
2019-03-06T20:28:14.293Z,25.83
2019-03-06T20:30:44.857Z,25.33
2019-03-06T20:33:15.414Z,20.53
2019-03-06T20:35:46.304Z,24.13
2019-03-06T20:38:16.771Z,22.73
2019-03-06T20:40:47.555Z,22.93
2019-03-06T20:43:17.839Z,25.23
2019-03-06T20:45:48.198Z,25.50
2019-03-06T20:48:19.115Z,29.77
2019-03-06T20:50:49.403Z,30.97
2019-03-06T20:53:19.678Z,33.13
2019-03-06T20:55:50.176Z,28.77
2019-03-06T20:58:20.603Z,32.47
2019-03-06T21:00:57.345Z,30.43
2019-03-06T21:03:35.099Z,28.93
2019-03-06T21:06:06.270Z,27.47
2019-03-06T21:08:36.599Z,41.40
2019-03-06T21:11:07.321Z,37.87
2019-03-06T21:13:37.710Z,32.47
2019-03-06T21:16:08.407Z,35.87
2019-03-06T21:18:39.103Z,31.13
2019-03-06T21:21:09.685Z,34.47
2019-03-06T21:23:40.306Z,34.40
2019-03-06T21:26:10.728Z,42.87
2019-03-06T21:28:41.119Z,40.67
2019-03-06T21:31:11.831Z,41.13
2019-03-06T21:33:42.620Z,44.00
2019-03-06T21:36:13.041Z,76.27
2019-03-06T21:38:43.484Z,67.63
2019-03-06T21:41:15.447Z,38.50
2019-03-06T21:43:45.883Z,48.33
2019-03-06T21:46:16.733Z,57.67
2019-03-06T21:48:47.030Z,45.27
2019-03-06T21:51:17.859Z,54.03
2019-03-06T21:53:48.604Z,52.63
2019-03-06T21:56:18.909Z,45.40
2019-03-06T21:58:49.397Z,40.83
2019-03-06T22:01:20.037Z,34.10
2019-03-06T22:03:50.388Z,35.77
2019-03-06T22:06:20.794Z,27.67
2019-03-06T22:08:51.402Z,29.57
2019-03-06T22:11:21.768Z,29.43
2019-03-06T22:13:52.446Z,30.37
2019-03-06T22:16:23.315Z,30.67
2019-03-06T22:18:53.739Z,32.60
2019-03-06T22:21:24.168Z,28.50
2019-03-06T22:23:54.530Z,33.40
2019-03-06T22:26:25.140Z,25.10
2019-03-06T22:28:55.765Z,29.33
2019-03-06T22:31:26.049Z,28.73
2019-03-06T22:33:56.470Z,37.67
2019-03-06T22:36:27.204Z,41.77
2019-03-06T22:38:57.681Z,36.10
2019-03-06T22:41:28.299Z,44.17
2019-03-06T22:44:00.181Z,35.07
2019-03-06T22:46:31.060Z,32.53
2019-03-06T22:49:01.436Z,33.67
2019-03-06T22:51:31.719Z,38.53
2019-03-06T22:54:02.203Z,24.33
2019-03-06T22:56:32.879Z,36.60
2019-03-06T22:59:03.411Z,42.20
2019-03-06T23:01:38.809Z,49.10
2019-03-06T23:04:09.575Z,52.37
2019-03-06T23:06:40.314Z,54.83
2019-03-06T23:09:12.312Z,108.37
2019-03-06T23:11:43.101Z,57.63
2019-03-06T23:14:14.095Z,51.70
2019-03-06T23:16:44.402Z,30.63
2019-03-06T23:19:14.789Z,25.90
2019-03-06T23:21:45.067Z,20.97
2019-03-06T23:24:15.770Z,24.07
2019-03-06T23:26:46.589Z,24.87
2019-03-06T23:29:16.979Z,29.70
2019-03-06T23:31:50.366Z,36.13
2019-03-06T23:34:20.586Z,19.37
2019-03-06T23:36:50.967Z,20.83
2019-03-06T23:39:21.334Z,19.97
2019-03-06T23:41:51.871Z,21.67
2019-03-06T23:44:22.389Z,19.83
2019-03-06T23:46:53.562Z,20.13
2019-03-06T23:49:23.998Z,22.23
2019-03-06T23:52:02.941Z,18.13
2019-03-06T23:54:33.845Z,22.33
2019-03-06T23:57:04.316Z,23.57
2019-03-06T23:59:34.811Z,24.80
